Flight Track Log - Related Links

Times and Time Zones

All times are in EDT time to prevent confusion due to time zone crossing. See the BJS444 flight status page for this flight to view local times or setup timezone preferences in your user account.

Time Position Orientation Groundspeed Altitude Reporting Facility
EDT Latitude Longitude Course Direction KTS MPH feet Rate Location/Type
Sat 02:22:28 PM 26.1128 -81.8956 23° Northeast 209 241 6,100  Level Miami Center
Sat 02:23:28 PM 26.1772 -81.8983 358° North 171 197 8,700 2,900 Climbing Miami Center
Sat 02:24:28 PM 26.2531 -81.8831 10° North 223 257 11,900 3,250 Climbing Miami Center
Sat 02:25:28 PM 26.3453 -81.8683 North 268 308 15,200 3,100 Climbing Miami Center
Sat 02:26:00 PM 27.3722 -81.1984 23° Northeast  Level Estimated
Sat 02:26:28 PM 26.4483 -81.8494 North 328 377 18,100  Level Miami Center
Sat 02:27:00 PM 27.4904 -81.1418 23° Northeast  Level Estimated
Sat 02:27:28 PM 26.5531 -81.8356 North 360 414 21,100  Level Miami Center
Sat 02:28:28 PM 26.6644 -81.8122 11° North 389 448 23,500 2,200 Climbing Miami Center
Sat 02:29:28 PM 26.7822 -81.7917 North 413 475 25,500 2,000 Climbing Miami Center
Sat 02:30:28 PM 26.9042 -81.7667 10° North 425 489 27,500 2,050 Climbing Miami Center
Sat 02:31:28 PM 27.0381 -81.7536 North 435 501 29,600 1,800 Climbing Miami Center
Sat 02:32:28 PM 27.1539 -81.7842 347° North 429 494 31,100 1,500 Climbing Miami Center
Sat 02:33:28 PM 27.2714 -81.8264 342° North 424 488 32,600 1,000 Climbing Miami Center
Sat 02:34:28 PM 27.3811 -81.8569 346° North 441 507 33,100 900 Climbing Miami Center
Sat 02:35:28 PM 27.5133 -81.8344 North 465 535 34,400 1,200 Climbing Miami Center
Sat 02:36:28 PM 27.6578 -81.7636 23° Northeast 490 564 35,500 1,250 Climbing Miami Center
Sat 02:37:28 PM 27.7869 -81.7011 23° Northeast 503 579 36,900 1,550 Climbing Miami Center
Sat 02:38:28 PM 27.8994 -81.6494 22° Northeast 503 579 38,600 1,450 Climbing Miami Center
Sat 02:39:28 PM 28.0181 -81.5933 23° Northeast 480 552 39,800 1,050 Climbing Miami Center
Sat 02:40:28 PM 28.1414 -81.5844 North 451 519 40,700 600 Climbing Miami Center
Sat 02:41:28 PM 28.2669 -81.5803 North 445 512 41,000 150 Climbing Miami Center
Sat 02:42:28 PM 28.3919 -81.5783 North 445 512 41,000  Level Miami Center
Sat 02:43:28 PM 28.5236 -81.5744 North 456 525 41,000  Level Miami Center
Sat 02:43:56 PM 28.5878 -81.5733 North 484 557 41,000  Level Jacksonville Center
Sat 02:44:56 PM 28.7233 -81.5692 North 501 577 41,000  Level Jacksonville Center
Sat 02:45:55 PM 28.8525 -81.5628 North 489 563 41,000  Level Jacksonville Center
Sat 02:46:55 PM 28.9861 -81.5586 North 476 548 41,000  Level Jacksonville Center
Sat 02:47:56 PM 29.1197 -81.5519 North 476 548 41,000  Level Jacksonville Center
Sat 02:48:56 PM 29.2531 -81.5453 North 476 548 41,000  Level Jacksonville Center
Sat 02:49:56 PM 29.3844 -81.5197 10° North 476 548 41,000  Level Jacksonville Center
Sat 02:50:56 PM 29.5156 -81.4989 North 476 548 41,000  Level Jacksonville Center
Sat 02:51:56 PM 29.6594 -81.4706 10° North 481 554 41,000  Level Jacksonville Center
Sat 02:52:56 PM 29.7886 -81.4472 North 476 548 41,000  Level Jacksonville Center
Sat 02:53:56 PM 29.9197 -81.4258 North 471 542 41,000  Level Jacksonville Center
Sat 02:54:56 PM 30.0531 -81.4000 10° North 471 542 41,000  Level Jacksonville Center
Sat 02:55:56 PM 30.1864 -81.3761 North 476 548 41,000  Level Jacksonville Center
Sat 02:56:56 PM 30.3242 -81.3525 North 487 560 41,000  Level Jacksonville Center
Sat 02:57:56 PM 30.4594 -81.3286 North 487 560 41,000  Level Jacksonville Center
Sat 02:58:56 PM 30.5950 -81.3069 North 487 560 41,000  Level Jacksonville Center
Sat 02:59:56 PM 30.7325 -81.2831 North 487 560 41,000  Level Jacksonville Center
Sat 03:00:56 PM 30.8678 -81.2492 12° North 487 560 41,000  Level Jacksonville Center
Sat 03:01:56 PM 30.9919 -81.1719 28° Northeast 487 560 41,000  Level Jacksonville Center
Sat 03:02:56 PM 31.1203 -81.0919 28° Northeast 504 580 41,000  Level Jacksonville Center
Sat 03:03:55 PM 31.2464 -81.0117 29° Northeast 512 589 41,000  Level Jacksonville Center
Sat 03:04:56 PM 31.3747 -80.9264 30° Northeast 519 597 41,000  Level Jacksonville Center
Sat 03:05:56 PM 31.4883 -80.8558 28° Northeast 511 588 41,000  Level Jacksonville Center
Sat 03:06:56 PM 31.6308 -80.7672 28° Northeast 511 588 41,000  Level Jacksonville Center
Sat 03:07:56 PM 31.7569 -80.6886 28° Northeast 511 588 41,000  Level Jacksonville Center
Sat 03:08:56 PM 31.8850 -80.6025 30° Northeast 516 594 41,000  Level Jacksonville Center
Sat 03:09:55 PM 32.0150 -80.5208 28° Northeast 516 594 41,000  Level Jacksonville Center
Sat 03:10:56 PM 32.1283 -80.4492 28° Northeast 511 588 41,000  Level Jacksonville Center
Sat 03:11:56 PM 32.2561 -80.3622 30° Northeast 511 588 41,000  Level Jacksonville Center
Sat 03:12:56 PM 32.3839 -80.2800 29° Northeast 511 588 41,000  Level Jacksonville Center
Sat 03:13:55 PM 32.5136 -80.1950 29° Northeast 511 588 41,000  Level Jacksonville Center
Sat 03:14:56 PM 32.6556 -80.1019 29° Northeast 516 594 41,000  Level Jacksonville Center
Sat 03:15:56 PM 32.7831 -80.0189 29° Northeast 516 594 41,000  Level Jacksonville Center
Sat 03:16:56 PM 32.9125 -79.9308 30° Northeast 516 594 41,000  Level Jacksonville Center
Sat 03:17:55 PM 33.0419 -79.8447 29° Northeast 516 594 41,000  Level Jacksonville Center
Sat 03:18:55 PM 33.1736 -79.7608 28° Northeast 516 594 41,000  Level Jacksonville Center
Sat 03:19:56 PM 33.3028 -79.6742 29° Northeast 516 594 41,000  Level Jacksonville Center
Sat 03:20:56 PM 33.4300 -79.5900 29° Northeast 516 594 41,000  Level Jacksonville Center
Sat 03:21:56 PM 33.5614 -79.5003 30° Northeast 516 594 41,000  Level Jacksonville Center
Sat 03:22:56 PM 33.6925 -79.4131 29° Northeast 521 600 41,000  Level Jacksonville Center
Sat 03:23:56 PM 33.8011 -79.3411 29° Northeast 508 585 41,000  Level Jacksonville Center
Sat 03:24:56 PM 33.9342 -79.2533 29° Northeast 513 590 41,000  Level Jacksonville Center
Sat 03:27:04 PM 34.2111 -79.0675 29° Northeast 536 617 41,000  Level Washington Center
Sat 03:28:04 PM 34.3411 -78.9747 31° Northeast 536 617 41,000  Level Washington Center
Sat 03:29:04 PM 34.4689 -78.8769 32° Northeast 536 617 41,000  Level Washington Center
Sat 03:30:04 PM 34.6056 -78.7661 34° Northeast 536 617 41,000  Level Washington Center
Sat 03:31:04 PM 34.7247 -78.6775 31° Northeast 552 635 41,000  Level Washington Center
Sat 03:32:04 PM 34.8608 -78.5711 33° Northeast 546 628 41,000  Level Washington Center
Sat 03:33:04 PM 34.9883 -78.4769 31° Northeast 541 623 41,000  Level Washington Center
Sat 03:34:04 PM 35.1158 -78.3750 33° Northeast 536 617 41,000  Level Washington Center
Sat 03:35:04 PM 35.2456 -78.2753 32° Northeast 541 623 41,000  Level Washington Center
Sat 03:36:04 PM 35.3750 -78.1750 32° Northeast 541 623 41,000  Level Washington Center
Sat 03:37:04 PM 35.4917 -78.0844 32° Northeast 546 628 41,000  Level Washington Center
Sat 03:38:04 PM 35.6211 -77.9836 32° Northeast 551 634 41,000  Level Washington Center
Sat 03:39:04 PM 35.7522 -77.8828 32° Northeast 556 640 41,000  Level Washington Center
Sat 03:40:04 PM 35.8814 -77.7814 32° Northeast 556 640 41,000  Level Washington Center
Sat 03:41:04 PM 36.0086 -77.6794 33° Northeast 556 640 41,000  Level Washington Center
Sat 03:42:04 PM 36.1294 -77.5644 38° Northeast 556 640 41,000  Level Washington Center
Sat 03:43:04 PM 36.2628 -77.4417 37° Northeast 551 634 41,000  Level Washington Center
Sat 03:44:04 PM 36.3750 -77.3333 38° Northeast 546 628 41,000  Level Washington Center
Sat 03:45:04 PM 36.4956 -77.2197 37° Northeast 552 635 41,000  Level Washington Center
Sat 03:46:04 PM 36.6203 -77.1006 37° Northeast 557 641 41,000  Level Washington Center
Sat 03:47:04 PM 36.7425 -76.9864 37° Northeast 557 641 41,000  Level Washington Center
Sat 03:48:04 PM 36.8586 -76.8586 41° Northeast 557 641 41,000  Level Washington Center
Sat 03:49:04 PM 36.9747 -76.7281 42° Northeast 557 641 41,000  Level Washington Center
Sat 03:50:04 PM 37.0906 -76.5942 43° Northeast 557 641 41,000  Level Washington Center
Sat 03:51:04 PM 37.2169 -76.4472 43° Northeast 557 641 41,000  Level Washington Center
Sat 03:52:04 PM 37.3347 -76.3128 42° Northeast 557 641 41,000  Level Washington Center
Sat 03:53:04 PM 37.4458 -76.1831 43° Northeast 557 641 41,000  Level Washington Center
Sat 03:54:04 PM 37.5653 -76.0531 41° Northeast 557 641 41,000  Level Washington Center
Sat 03:55:04 PM 37.6783 -75.9172 44° Northeast 557 641 41,000  Level Washington Center
Sat 03:56:04 PM 37.7933 -75.7836 43° Northeast 557 641 41,000  Level Washington Center
Sat 03:57:04 PM 37.9061 -75.6444 44° Northeast 557 641 41,000  Level Washington Center
Sat 03:58:04 PM 38.0189 -75.5181 41° Northeast 552 635 41,000  Level Washington Center
Sat 03:59:04 PM 38.1500 -75.4122 32° Northeast 547 629 41,000  Level Washington Center
Sat 04:00:04 PM 38.2875 -75.3272 26° Northeast 547 629 41,000  Level Washington Center
Sat 04:01:04 PM 38.4103 -75.2472 27° Northeast 542 624 41,000 -350 Level Washington Center
Sat 04:02:04 PM 38.5475 -75.1536 28° Northeast 542 624 40,300 -850 Descending Washington Center
Sat 04:03:04 PM 38.6869 -75.0597 28° Northeast 547 629 39,300 -1,250 Descending Washington Center
Sat 04:04:04 PM 38.8283 -74.9761 25° Northeast 552 635 37,800 -1,450 Descending Washington Center
Sat 04:05:04 PM 38.9694 -74.8867 26° Northeast 552 635 36,400 -1,700 Descending Washington Center
Sat 04:06:04 PM 39.1064 -74.7758 32° Northeast 557 641 34,400 -2,750 Descending Washington Center
Sat 04:07:04 PM 39.2156 -74.6219 47° Northeast 563 648 30,900 -3,700 Descending Washington Center
Sat 04:08:04 PM 39.3183 -74.4594 51° Northeast 569 655 27,000 -3,194 Descending Washington Center
Sat 04:10:10 PM 39.5300 -74.1325 50° Northeast 543 625 21,000 -2,086 Descending New York Center
Sat 04:11:11 PM 39.6086 -74.0069 51° Northeast 505 581 20,500 -800 Descending New York Center
Sat 04:12:10 PM 39.6978 -73.8681 50° Northeast 499 574 19,400 -807 Descending New York Center
Sat 04:13:10 PM 39.7869 -73.7261 51° Northeast 499 574 18,900 -738 Descending New York Center
Sat 04:14:12 PM 39.8717 -73.5892 51° Northeast 499 574 17,900 -950 Descending New York Center
Sat 04:15:10 PM 39.9664 -73.4631 46° Northeast 488 562 17,000 -1,029 Descending New York Center
Sat 04:17:36 PM 40.2100 -73.1764 42° Northeast 466 536 14,400 -1,049 Descending Boston Center
Sat 04:18:36 PM 40.3022 -73.0658 42° Northeast 451 519 13,400 -1,172 Descending Boston Center
Sat 04:20:25 PM 40.4667 -72.8833 40° Northeast 416 479 11,100 -1,278 Descending New York TRACON
Sat 04:21:25 PM 40.5333 -72.7833 49° Northeast 358 412 9,800 -1,350 Descending New York TRACON
Sat 04:22:25 PM 40.6000 -72.7000 43° Northeast 317 365 8,400 -1,524 Descending New York TRACON
Sat 04:23:31 PM 40.6833 -72.6833 North 272 313 6,600 -1,600 Descending New York TRACON
Sat 04:24:25 PM 40.7500 -72.7000 349° North 254 292 5,200 -1,263 Descending New York TRACON
Sat 04:25:25 PM 40.8167 -72.7333 339° North 248 285 4,200 -550 Descending New York TRACON
Sat 04:26:25 PM 40.8833 -72.7667 339° North 246 283 4,100 -350 Descending New York TRACON
Sat 04:27:25 PM 40.9333 -72.8167 323° Northwest 237 273 3,500 -476 Descending New York TRACON
Sat 04:28:31 PM 41.0000 -72.8500 339° North 244 281 3,100 -190 Descending New York TRACON
Sat 04:29:31 PM 41.0500 -72.8833 333° Northwest 214 246 3,100  Level New York TRACON
Sat 04:30:25 PM 41.1000 -72.9167 333° Northwest 205 236 3,100  Level New York TRACON
Sat 04:31:31 PM 41.1667 -72.9667 331° Northwest 207 238 3,100  Level New York TRACON
Sat 04:32:25 PM 41.2000 -72.9833 339° North 175 201 3,100  Level New York TRACON
Sat 04:33:25 PM 41.2500 -73.0167 333° Northwest 177 204 3,100  Level New York TRACON
Sat 04:34:25 PM 41.2833 -73.0500 323° Northwest 174 200 3,100  Level New York TRACON

Login

Don't have an account? Register now (free) for customized features, flight alerts, and more!